Time;durP1;ratioP1;P1;durP2;ratioP2;P2;SDS_P1;SDS_P2;PMS_P1;PMS_P2;Temp;Humidity;BMP_temperature;BMP_pressure;BME280_temperature;BME280_humidity;BME280_pressure;Samples;Min_cycle;Max_cycle;Signal;HPM_P1;HPM_P2
2023/09/03 00:01:37;;;;;;;7.05;4.45;;;15.90;99.90;;;;;;4231103;28;20048;-81
2023/09/03 00:03:38;;;;;;;7.45;3.90;;;16.00;99.90;;;;;;4231167;28;20047;-80
2023/09/03 00:05:50;;;;;;;8.38;5.07;;;15.90;99.90;;;;;;4230789;28;20069;-81
2023/09/03 00:07:51;;;;;;;7.72;4.43;;;16.00;99.90;;;;;;4230250;28;20047;-80
2023/09/03 00:09:51;;;;;;;5.20;3.95;;;15.90;99.90;;;;;;4230697;28;20472;-80
2023/09/03 00:11:52;;;;;;;7.35;4.60;;;16.00;99.90;;;;;;4230765;28;20051;-80
2023/09/03 00:13:54;;;;;;;10.60;4.40;;;15.90;99.90;;;;;;4230951;28;20447;-80
2023/09/03 00:15:54;;;;;;;10.00;5.18;;;15.90;99.90;;;;;;4243207;27;20094;-80
2023/09/03 00:17:55;;;;;;;8.10;4.78;;;14.90;99.90;;;;;;4247956;28;20411;-80
2023/09/03 00:19:56;;;;;;;7.20;4.13;;;15.80;99.90;;;;;;4247932;28;20039;-80
2023/09/03 00:21:57;;;;;;;8.07;4.40;;;15.80;99.90;;;;;;4229348;28;20051;-80
2023/09/03 00:23:58;;;;;;;11.13;4.47;;;15.70;99.90;;;;;;4247950;28;20047;-80
2023/09/03 00:25:59;;;;;;;8.20;4.30;;;15.70;99.90;;;;;;4212018;28;20082;-81
2023/09/03 00:28:00;;;;;;;8.82;4.13;;;15.60;99.90;;;;;;4247777;28;20071;-80
2023/09/03 00:30:01;;;;;;;7.35;4.30;;;15.60;99.90;;;;;;4212530;28;20055;-80
2023/09/03 00:32:02;;;;;;;7.47;4.68;;;15.60;99.90;;;;;;4212615;28;20044;-80
2023/09/03 00:34:03;;;;;;;5.60;4.32;;;15.50;99.90;;;;;;4229561;28;20139;-80
2023/09/03 00:36:06;;;;;;;7.15;4.70;;;15.50;99.90;;;;;;4228885;28;20040;-80
2023/09/03 00:38:07;;;;;;;7.43;5.13;;;15.50;99.90;;;;;;4229647;28;20051;-80
2023/09/03 00:40:08;;;;;;;8.38;4.03;;;15.50;99.90;;;;;;4249997;27;20047;-80
2023/09/03 00:42:09;;;;;;;9.30;4.90;;;15.50;99.90;;;;;;4250720;27;20042;-80
2023/09/03 00:44:10;;;;;;;6.63;4.82;;;14.30;99.90;;;;;;4215487;28;20126;-80
2023/09/03 00:46:11;;;;;;;9.68;4.50;;;15.40;99.90;;;;;;4250433;27;20499;-80
2023/09/03 00:48:15;;;;;;;7.60;4.80;;;15.30;99.90;;;;;;4232363;28;20120;-80
2023/09/03 00:50:16;;;;;;;6.93;4.30;;;15.30;99.90;;;;;;4250459;27;20092;-80
2023/09/03 00:52:19;;;;;;;8.88;4.80;;;15.30;99.90;;;;;;4250734;27;20558;-81
2023/09/03 00:54:25;;;;;;;5.55;4.03;;;15.30;99.90;;;;;;4250642;27;20058;-80
2023/09/03 00:56:26;;;;;;;6.80;4.68;;;15.30;99.90;;;;;;4218192;28;20074;-80
2023/09/03 00:58:27;;;;;;;7.25;4.53;;;15.30;99.90;;;;;;4233459;28;20135;-80
2023/09/03 01:00:28;;;;;;;6.63;4.45;;;15.30;99.90;;;;;;4215201;28;20047;-80
2023/09/03 01:02:30;;;;;;;9.13;4.65;;;15.30;99.90;;;;;;4233641;28;20151;-80
2023/09/03 01:04:31;;;;;;;7.80;4.95;;;15.20;99.90;;;;;;4233741;28;20044;-81
2023/09/03 01:06:32;;;;;;;9.13;4.75;;;15.20;99.90;;;;;;4233327;28;20175;-81
2023/09/03 01:08:33;;;;;;;7.20;4.70;;;15.20;99.90;;;;;;4215708;28;20048;-81
2023/09/03 01:10:49;;;;;;;8.60;4.88;;;15.20;99.90;;;;;;4199264;28;20490;-80
2023/09/03 01:13:12;;;;;;;6.72;4.45;;;15.10;99.90;;;;;;4250368;27;20047;-80
2023/09/03 01:15:28;;;;;;;7.50;4.40;;;15.10;99.90;;;;;;4250146;27;20051;-80
2023/09/03 01:17:38;;;;;;;7.93;4.80;;;15.10;99.90;;;;;;4250257;27;20126;-81
2023/09/03 01:19:56;;;;;;;7.68;4.95;;;15.20;99.90;;;;;;4250333;27;20047;-81
2023/09/03 01:22:05;;;;;;;7.20;4.80;;;15.20;99.90;;;;;;4231600;28;20048;-81
2023/09/03 01:24:12;;;;;;;8.38;5.13;;;15.20;99.90;;;;;;4232008;28;20055;-80
2023/09/03 01:26:31;;;;;;;6.13;4.22;;;15.10;99.90;;;;;;4250079;27;20537;-80
2023/09/03 01:28:35;;;;;;;;;;;15.10;99.90;;;;;;4231953;28;20083;-80
2023/09/03 01:30:36;;;;;;;6.20;4.07;;;15.10;99.90;;;;;;4232113;28;19926;-80
2023/09/03 01:32:38;;;;;;;9.63;4.93;;;15.10;99.90;;;;;;4249887;27;20122;-81
2023/09/03 01:34:40;;;;;;;9.60;5.05;;;15.10;99.90;;;;;;4250537;27;20036;-81
2023/09/03 01:36:43;;;;;;;9.25;4.88;;;15.10;99.90;;;;;;4215309;28;20117;-81
2023/09/03 01:38:44;;;;;;;7.65;4.35;;;15.10;99.90;;;;;;4252789;27;20055;-81
2023/09/03 01:40:50;;;;;;;10.27;5.35;;;15.10;99.90;;;;;;4254631;27;20046;-81
2023/09/03 01:42:51;;;;;;;9.48;5.35;;;15.00;99.90;;;;;;4254007;27;20091;-81
2023/09/03 01:44:52;;;;;;;8.35;4.15;;;15.10;99.90;;;;;;4234022;28;20081;-81
2023/09/03 01:47:12;;;;;;;6.63;4.63;;;15.10;99.90;;;;;;4232279;28;20090;-81
2023/09/03 01:49:56;;;;;;;6.90;5.10;;;15.10;99.90;;;;;;4233339;28;20047;-81
2023/09/03 01:52:22;;;;;;;6.53;4.38;;;15.10;99.90;;;;;;4253912;27;20476;-80
2023/09/03 01:54:33;;;;;;;8.80;4.75;;;15.10;99.90;;;;;;4256952;27;20047;-80
2023/09/03 01:56:42;;;;;;;7.18;4.65;;;15.10;99.90;;;;;;4256391;27;20045;-80
2023/09/03 01:58:53;;;;;;;6.50;4.53;;;15.10;99.90;;;;;;4257909;27;20051;-80
2023/09/03 02:00:55;;;;;;;7.07;4.53;;;15.10;99.90;;;;;;4257961;27;20479;-80
2023/09/03 02:03:01;;;;;;;8.38;4.28;;;15.10;99.90;;;;;;4239984;28;20048;-80
2023/09/03 02:05:02;;;;;;;7.13;4.60;;;15.10;99.90;;;;;;4257680;27;20066;-81
2023/09/03 02:07:05;;;;;;;6.18;4.18;;;15.10;99.90;;;;;;4257510;27;20077;-80
2023/09/03 02:09:06;;;;;;;5.93;4.25;;;15.00;99.90;;;;;;4260476;27;20099;-80
2023/09/03 02:11:07;;;;;;;6.05;4.18;;;15.00;99.90;;;;;;4256735;27;20043;-81
2023/09/03 02:13:08;;;;;;;6.53;4.28;;;15.00;99.90;;;;;;4237473;28;20103;-80
2023/09/03 02:15:09;;;;;;;9.45;4.43;;;15.00;99.90;;;;;;4265742;27;20051;-79
2023/09/03 02:17:14;;;;;;;6.90;4.28;;;14.90;99.90;;;;;;4267578;27;20049;-80
2023/09/03 02:19:15;;;;;;;5.78;4.05;;;14.90;99.90;;;;;;4267877;27;20052;-80
2023/09/03 02:21:16;;;;;;;7.22;4.25;;;14.90;99.90;;;;;;4266147;27;20039;-79
2023/09/03 02:23:16;;;;;;;7.53;4.45;;;13.90;99.90;;;;;;4262771;27;20058;-80
2023/09/03 02:25:18;;;;;;;7.15;4.80;;;14.90;99.90;;;;;;4264286;27;20039;-79
2023/09/03 02:27:19;;;;;;;6.85;3.80;;;14.80;99.90;;;;;;4266562;27;20047;-79
2023/09/03 02:29:23;;;;;;;8.32;4.20;;;14.80;99.90;;;;;;4267854;27;20049;-80
2023/09/03 02:31:24;;;;;;;6.18;4.32;;;14.80;99.90;;;;;;4267440;27;20043;-79
2023/09/03 02:33:25;;;;;;;8.10;4.20;;;14.80;99.90;;;;;;4233119;28;20028;-80
2023/09/03 02:35:26;;;;;;;5.97;3.70;;;14.80;99.90;;;;;;4258134;27;20039;-80
2023/09/03 02:37:28;;;;;;;7.15;4.00;;;14.70;99.90;;;;;;4249772;27;20084;-80
2023/09/03 02:39:28;;;;;;;6.10;4.30;;;14.70;99.90;;;;;;4249490;27;20047;-80
2023/09/03 02:41:32;;;;;;;5.93;3.67;;;14.60;99.90;;;;;;4249850;27;20426;-80
2023/09/03 02:43:33;;;;;;;5.28;4.05;;;14.60;99.90;;;;;;4249585;27;20039;-81
2023/09/03 02:45:34;;;;;;;4.82;4.05;;;14.60;99.90;;;;;;4249764;27;20658;-80
2023/09/03 02:47:34;;;;;;;14.18;5.13;;;14.60;99.90;;;;;;4249421;27;20131;-80
2023/09/03 02:49:35;;;;;;;6.10;4.18;;;14.50;99.90;;;;;;4248804;27;20054;-80
2023/09/03 02:51:38;;;;;;;7.30;3.83;;;14.60;99.90;;;;;;4249291;27;20104;-80
2023/09/03 02:53:41;;;;;;;11.98;4.50;;;14.50;99.90;;;;;;4248658;27;20039;-80
2023/09/03 02:55:41;;;;;;;5.68;3.75;;;14.50;99.90;;;;;;4234325;27;20484;-81
2023/09/03 02:57:42;;;;;;;8.50;3.95;;;14.40;99.90;;;;;;4231539;28;20048;-80
2023/09/03 02:59:44;;;;;;;7.80;3.70;;;14.40;99.90;;;;;;4231893;28;20055;-81
2023/09/03 03:01:44;;;;;;;6.93;4.28;;;14.40;99.90;;;;;;4213447;28;20500;-81
2023/09/03 03:03:46;;;;;;;5.53;3.78;;;14.40;99.90;;;;;;4231515;28;20046;-81
2023/09/03 03:05:51;;;;;;;9.57;4.70;;;14.40;99.90;;;;;;4231325;28;20039;-81
2023/09/03 03:07:52;;;;;;;6.90;4.88;;;14.30;99.90;;;;;;4231733;28;20040;-81
2023/09/03 03:09:53;;;;;;;5.60;4.00;;;14.30;99.90;;;;;;4231298;28;20502;-81
2023/09/03 03:11:54;;;;;;;7.00;4.30;;;14.30;99.90;;;;;;4218947;28;20498;-81
2023/09/03 03:13:54;;;;;;;5.80;4.20;;;14.20;99.90;;;;;;4230037;28;20055;-81
2023/09/03 03:15:55;;;;;;;5.93;3.53;;;14.30;99.90;;;;;;4248174;27;20095;-81
2023/09/03 03:17:56;;;;;;;9.50;4.38;;;14.20;99.90;;;;;;4230529;28;20104;-81
2023/09/03 03:19:57;;;;;;;4.68;3.67;;;14.20;99.90;;;;;;4230470;28;20055;-81
2023/09/03 03:21:58;;;;;;;7.22;4.07;;;14.20;99.90;;;;;;4230231;28;20039;-80
2023/09/03 03:23:58;;;;;;;5.65;4.15;;;14.20;99.90;;;;;;4248274;27;20054;-81
2023/09/03 03:25:59;;;;;;;5.55;4.13;;;14.20;99.90;;;;;;4213119;28;20462;-81
2023/09/03 03:28:00;;;;;;;8.52;4.03;;;14.10;99.90;;;;;;4230260;28;20538;-81
2023/09/03 03:30:01;;;;;;;7.90;3.72;;;13.40;99.90;;;;;;4249476;27;20035;-81
2023/09/03 03:32:02;;;;;;;6.50;4.25;;;14.10;99.90;;;;;;4248360;27;20062;-81
2023/09/03 03:34:03;;;;;;;8.18;4.13;;;14.10;99.90;;;;;;4248478;27;20039;-81
2023/09/03 03:36:04;;;;;;;8.55;4.35;;;14.10;99.90;;;;;;4248056;27;20038;-81
2023/09/03 03:38:05;;;;;;;7.18;4.90;;;14.10;99.90;;;;;;4230009;28;20114;-81
2023/09/03 03:40:06;;;;;;;6.78;4.10;;;14.20;99.90;;;;;;4247942;28;20552;-81
2023/09/03 03:42:07;;;;;;;6.32;4.10;;;14.00;99.90;;;;;;4248308;28;20513;-81
2023/09/03 03:44:08;;;;;;;7.30;4.15;;;14.10;99.90;;;;;;4248423;28;20071;-81
2023/09/03 03:46:10;;;;;;;6.47;3.90;;;14.00;99.90;;;;;;4247910;28;20039;-81
2023/09/03 03:48:11;;;;;;;6.05;4.30;;;14.10;99.90;;;;;;4247471;28;20039;-81
2023/09/03 03:50:12;;;;;;;5.85;4.50;;;14.10;99.90;;;;;;4248160;28;20517;-81
2023/09/03 03:52:12;;;;;;;7.65;4.45;;;14.00;99.90;;;;;;4239931;28;20082;-81
2023/09/03 03:54:14;;;;;;;7.20;4.43;;;14.10;99.90;;;;;;4231381;28;20108;-81
2023/09/03 03:56:15;;;;;;;6.55;4.70;;;14.00;99.90;;;;;;4230968;28;20067;-81
2023/09/03 03:58:15;;;;;;;6.45;4.43;;;14.00;99.90;;;;;;4213180;28;20771;-81
2023/09/03 04:00:16;;;;;;;10.18;4.80;;;14.00;99.90;;;;;;4230849;28;20051;-81
2023/09/03 04:02:17;;;;;;;6.40;3.92;;;14.00;99.90;;;;;;4231581;28;20928;-81
2023/09/03 04:04:19;;;;;;;6.40;4.43;;;14.00;99.90;;;;;;4240701;28;20059;-80
2023/09/03 04:06:20;;;;;;;7.05;4.18;;;14.00;99.90;;;;;;4242193;28;20047;-81
2023/09/03 04:08:21;;;;;;;5.20;3.67;;;14.00;99.90;;;;;;4237315;28;20075;-81
2023/09/03 04:10:21;;;;;;;8.48;4.90;;;13.90;99.90;;;;;;4231840;28;20047;-81
2023/09/03 04:12:22;;;;;;;6.57;4.85;;;14.00;99.90;;;;;;4232077;28;20100;-82
2023/09/03 04:14:23;;;;;;;10.57;4.97;;;13.90;99.90;;;;;;4232636;28;20054;-81
2023/09/03 04:16:24;;;;;;;6.90;4.90;;;13.90;99.90;;;;;;4216949;28;20036;-81
2023/09/03 04:18:26;;;;;;;6.13;4.70;;;13.90;99.90;;;;;;4216341;28;20122;-81
2023/09/03 04:20:27;;;;;;;8.82;4.88;;;13.90;99.90;;;;;;4234626;28;20040;-81
2023/09/03 04:22:28;;;;;;;8.35;4.97;;;13.90;99.90;;;;;;4234587;28;20533;-81
2023/09/03 04:24:28;;;;;;;7.38;4.68;;;13.90;99.90;;;;;;4234250;28;20051;-81
2023/09/03 04:26:29;;;;;;;7.13;4.63;;;13.90;99.90;;;;;;4215810;28;20044;-81
2023/09/03 04:28:30;;;;;;;8.45;5.38;;;13.90;99.90;;;;;;4234196;28;20061;-81
2023/09/03 04:30:31;;;;;;;6.78;5.05;;;13.90;99.90;;;;;;4234184;28;20040;-81
2023/09/03 04:32:31;;;;;;;7.80;4.97;;;15.00;99.90;;;;;;4233888;28;20039;-81
2023/09/03 04:34:32;;;;;;;8.45;4.60;;;13.90;99.90;;;;;;4234271;28;20048;-81
2023/09/03 04:36:34;;;;;;;8.32;5.35;;;13.80;99.90;;;;;;4234131;28;20051;-81
2023/09/03 04:38:34;;;;;;;8.60;4.68;;;13.90;99.90;;;;;;4233847;28;20050;-81
2023/09/03 04:40:36;;;;;;;7.43;4.97;;;13.80;99.90;;;;;;4215992;28;20079;-81
2023/09/03 04:42:38;;;;;;;10.32;5.22;;;13.90;99.90;;;;;;4233925;28;20108;-81
2023/09/03 04:44:39;;;;;;;9.40;5.00;;;13.80;99.90;;;;;;4233658;28;20088;-81
2023/09/03 04:46:40;;;;;;;7.00;4.32;;;13.80;99.90;;;;;;4233471;28;20051;-81
2023/09/03 04:48:41;;;;;;;8.40;5.15;;;15.00;99.90;;;;;;4215416;28;20055;-81
2023/09/03 04:50:42;;;;;;;8.23;5.57;;;13.80;99.90;;;;;;4233715;28;20050;-80
2023/09/03 04:52:44;;;;;;;7.75;5.32;;;13.80;99.90;;;;;;4233483;28;20040;-80
2023/09/03 04:54:45;;;;;;;6.60;4.85;;;13.80;99.90;;;;;;4233134;28;20040;-81
2023/09/03 04:56:48;;;;;;;6.68;4.35;;;13.90;99.90;;;;;;4215334;28;20188;-80
2023/09/03 04:58:48;;;;;;;7.97;5.22;;;13.80;99.90;;;;;;4233487;28;20047;-81
2023/09/03 05:00:49;;;;;;;7.10;4.95;;;13.80;99.90;;;;;;4215288;27;20062;-81
2023/09/03 05:02:50;;;;;;;7.40;4.97;;;13.80;99.90;;;;;;4233645;28;20534;-81
2023/09/03 05:04:54;;;;;;;6.80;4.82;;;13.80;99.90;;;;;;4226191;27;20042;-81
2023/09/03 05:06:56;;;;;;;7.32;5.07;;;13.90;99.90;;;;;;4231615;28;20036;-81
2023/09/03 05:08:57;;;;;;;9.45;4.70;;;13.80;99.90;;;;;;4250611;27;20047;-82
2023/09/03 05:11:06;;;;;;;9.07;4.65;;;13.80;99.90;;;;;;4250293;27;20096;-82
2023/09/03 05:13:06;;;;;;;5.35;3.63;;;13.80;99.90;;;;;;4232207;28;20538;-82
2023/09/03 05:15:11;;;;;;;7.88;4.65;;;13.80;99.90;;;;;;4249828;27;20047;-82
2023/09/03 05:17:12;;;;;;;6.78;4.32;;;13.80;99.90;;;;;;4246211;27;20039;-82
2023/09/03 05:19:14;;;;;;;6.07;4.50;;;13.80;99.90;;;;;;4214917;28;20146;-82
2023/09/03 05:21:15;;;;;;;8.32;4.78;;;13.80;99.90;;;;;;4233474;28;20088;-82
2023/09/03 05:23:16;;;;;;;7.15;4.68;;;13.90;99.90;;;;;;4246889;27;20043;-82
2023/09/03 05:25:17;;;;;;;7.45;4.40;;;13.90;99.90;;;;;;4231612;28;20047;-82
2023/09/03 05:27:17;;;;;;;6.05;4.40;;;13.90;99.90;;;;;;4250123;27;20395;-82
2023/09/03 05:29:18;;;;;;;8.95;4.82;;;13.90;99.90;;;;;;4231291;28;20054;-82
2023/09/03 05:31:19;;;;;;;5.53;4.28;;;14.00;99.90;;;;;;4231751;28;20047;-82
2023/09/03 05:33:21;;;;;;;7.35;5.38;;;14.00;99.90;;;;;;4250113;27;20407;-82
2023/09/03 05:35:30;;;;;;;7.93;5.30;;;14.00;99.90;;;;;;4249898;27;20461;-82
2023/09/03 05:37:31;;;;;;;7.68;5.00;;;14.10;99.90;;;;;;4249228;27;20046;-82
2023/09/03 05:39:33;;;;;;;5.68;3.95;;;14.00;99.90;;;;;;4214746;28;20059;-82
2023/09/03 05:41:33;;;;;;;7.85;5.43;;;14.10;99.90;;;;;;4231816;28;20119;-82
2023/09/03 05:43:34;;;;;;;7.25;4.28;;;14.10;99.90;;;;;;4214609;28;20055;-82
2023/09/03 05:45:44;;;;;;;9.57;5.13;;;14.10;99.90;;;;;;4249481;27;20118;-82
2023/09/03 05:47:45;;;;;;;8.35;4.75;;;14.20;99.90;;;;;;4249787;27;20500;-82
2023/09/03 05:49:46;;;;;;;9.10;5.30;;;14.20;99.90;;;;;;4249252;27;20039;-82
2023/09/03 05:51:47;;;;;;;6.60;4.82;;;14.20;99.90;;;;;;4231083;28;20117;-82
2023/09/03 05:53:47;;;;;;;7.97;5.43;;;14.20;99.90;;;;;;4214371;28;20040;-82
2023/09/03 05:55:48;;;;;;;11.50;5.15;;;14.30;99.90;;;;;;4249136;27;20043;-82
2023/09/03 05:57:53;;;;;;;11.07;5.47;;;14.40;99.90;;;;;;4249675;27;20050;-82
2023/09/03 05:59:54;;;;;;;8.70;5.20;;;14.40;99.90;;;;;;4216375;28;20115;-82
2023/09/03 06:01:57;;;;;;;9.35;5.45;;;14.40;99.90;;;;;;4197567;28;20040;-82
2023/09/03 06:04:02;;;;;;;9.73;5.32;;;14.10;99.90;;;;;;4232477;28;20047;-82
2023/09/03 06:06:04;;;;;;;8.57;5.32;;;14.50;99.90;;;;;;4213881;28;20461;-81
2023/09/03 06:08:05;;;;;;;9.18;5.07;;;14.60;99.90;;;;;;4214259;28;20084;-82
2023/09/03 06:10:06;;;;;;;8.10;5.22;;;14.60;99.90;;;;;;4249523;27;20539;-82
2023/09/03 06:12:07;;;;;;;8.43;4.63;;;14.70;99.90;;;;;;4214307;28;20044;-81
2023/09/03 06:14:08;;;;;;;6.97;5.00;;;14.80;99.90;;;;;;4249513;27;20444;-82
2023/09/03 06:16:10;;;;;;;8.23;5.10;;;14.80;99.90;;;;;;4248983;27;20177;-82
2023/09/03 06:18:11;;;;;;;7.00;4.60;;;14.70;99.90;;;;;;4249185;27;20039;-82
2023/09/03 06:20:12;;;;;;;8.48;4.70;;;14.80;99.90;;;;;;4230980;28;20058;-82
2023/09/03 06:22:13;;;;;;;9.52;5.22;;;14.90;99.90;;;;;;4213673;28;20051;-81
2023/09/03 06:24:16;;;;;;;9.05;4.75;;;14.90;99.90;;;;;;4199103;28;20082;-82
2023/09/03 06:26:17;;;;;;;8.82;4.90;;;14.90;99.90;;;;;;4233483;28;20050;-82
2023/09/03 06:28:18;;;;;;;8.70;4.43;;;15.00;99.90;;;;;;4233845;28;20040;-81
2023/09/03 06:30:19;;;;;;;7.10;4.43;;;15.10;99.90;;;;;;4233105;28;20093;-81
2023/09/03 06:32:24;;;;;;;5.85;4.68;;;15.20;99.90;;;;;;4233933;28;20046;-81
2023/09/03 06:34:25;;;;;;;8.18;4.97;;;15.00;99.90;;;;;;4197473;28;20059;-80
2023/09/03 06:36:26;;;;;;;8.90;4.45;;;15.30;99.90;;;;;;4213814;28;20768;-80
2023/09/03 06:38:26;;;;;;;5.55;4.20;;;15.40;99.90;;;;;;4232523;28;20051;-82
2023/09/03 06:40:27;;;;;;;9.35;4.38;;;15.50;99.90;;;;;;4198154;28;20056;-82
2023/09/03 06:42:29;;;;;;;7.75;4.22;;;15.50;99.90;;;;;;4232473;28;20043;-81
2023/09/03 06:44:30;;;;;;;7.93;5.03;;;15.70;99.90;;;;;;4213436;28;20086;-80
2023/09/03 06:46:31;;;;;;;8.23;3.88;;;15.80;99.90;;;;;;4232187;28;20039;-81
2023/09/03 06:48:39;;;;;;;6.57;4.10;;;16.10;99.90;;;;;;4215763;28;20059;-80
2023/09/03 06:50:49;;;;;;;8.45;3.90;;;16.10;99.90;;;;;;4199336;28;20443;-80
2023/09/03 06:53:23;;;;;;;6.35;3.40;;;16.20;99.90;;;;;;4233902;28;20066;-81
2023/09/03 06:55:28;;;;;;;8.63;3.72;;;16.30;99.90;;;;;;4233956;28;20403;-81
2023/09/03 06:57:29;;;;;;;5.32;3.03;;;16.40;99.90;;;;;;4216865;28;20044;-81
2023/09/03 06:59:32;;;;;;;7.35;3.22;;;16.50;99.90;;;;;;4250409;27;20398;-81
2023/09/03 07:01:33;;;;;;;5.28;2.97;;;16.60;99.90;;;;;;4231684;27;20085;-81
2023/09/03 07:03:36;;;;;;;7.13;3.03;;;16.70;99.90;;;;;;4229213;28;20317;-81
2023/09/03 07:05:37;;;;;;;6.13;3.25;;;16.80;99.90;;;;;;4269297;27;20045;-81
2023/09/03 07:07:41;;;;;;;3.88;2.65;;;16.90;99.90;;;;;;4235087;28;20047;-81
2023/09/03 07:09:42;;;;;;;4.35;2.70;;;17.00;99.90;;;;;;4249853;28;20043;-80
2023/09/03 07:11:43;;;;;;;4.50;2.67;;;17.00;99.90;;;;;;4252646;28;20052;-81
2023/09/03 07:13:44;;;;;;;9.13;3.58;;;17.20;99.90;;;;;;4205742;28;20059;-81
2023/09/03 07:15:45;;;;;;;4.10;2.85;;;18.40;99.90;;;;;;4232313;28;20055;-81
2023/09/03 07:17:48;;;;;;;6.55;2.47;;;17.30;99.90;;;;;;4223134;28;20032;-81
2023/09/03 07:19:48;;;;;;;3.45;2.40;;;17.40;99.90;;;;;;4196681;28;20063;-80
2023/09/03 07:21:49;;;;;;;4.18;2.30;;;17.50;99.90;;;;;;4213032;28;20508;-81
2023/09/03 07:23:51;;;;;;;4.00;2.10;;;17.50;99.90;;;;;;4196927;28;20383;-80
2023/09/03 07:25:52;;;;;;;4.40;2.60;;;17.50;99.90;;;;;;4231081;28;20047;-80
2023/09/03 07:27:53;;;;;;;5.38;2.25;;;17.60;99.90;;;;;;4231058;28;20040;-80
2023/09/03 07:29:54;;;;;;;5.53;2.50;;;17.60;99.90;;;;;;4212850;28;20492;-80
2023/09/03 07:31:55;;;;;;;7.65;2.55;;;17.70;99.90;;;;;;4212959;28;20048;-80
2023/09/03 07:33:58;;;;;;;4.30;2.40;;;17.70;99.90;;;;;;4231008;28;20042;-80
2023/09/03 07:35:59;;;;;;;5.03;2.10;;;17.70;99.90;;;;;;4230609;28;20051;-80
2023/09/03 07:38:00;;;;;;;4.75;2.30;;;17.70;99.90;;;;;;4231027;28;20419;-80
2023/09/03 07:40:00;;;;;;;3.65;2.38;;;17.70;99.90;;;;;;4196291;28;20048;-80
2023/09/03 07:42:01;;;;;;;6.57;2.35;;;17.70;99.90;;;;;;4213019;28;20048;-80
2023/09/03 07:44:02;;;;;;;3.72;2.10;;;17.80;99.90;;;;;;4231227;28;20095;-80
2023/09/03 07:46:03;;;;;;;4.75;1.90;;;17.90;99.90;;;;;;4212649;28;20048;-80
2023/09/03 07:48:04;;;;;;;3.78;1.85;;;17.90;99.90;;;;;;4230836;28;20044;-80
2023/09/03 07:50:06;;;;;;;2.58;1.90;;;18.00;99.90;;;;;;4233269;28;20461;-80
2023/09/03 07:52:07;;;;;;;3.85;2.28;;;18.10;99.90;;;;;;4216241;28;20039;-80
2023/09/03 07:54:08;;;;;;;4.22;2.22;;;18.20;99.90;;;;;;4216493;28;20092;-81
2023/09/03 07:56:09;;;;;;;3.05;2.08;;;18.20;99.90;;;;;;4234587;28;20847;-80
2023/09/03 07:58:10;;;;;;;4.95;1.90;;;18.30;99.90;;;;;;4234743;28;20046;-81
2023/09/03 08:00:12;;;;;;;2.65;2.10;;;18.30;99.90;;;;;;4241481;27;20047;-82
2023/09/03 08:02:13;;;;;;;2.35;1.70;;;18.30;99.90;;;;;;4249330;27;20440;-83
2023/09/03 08:04:14;;;;;;;3.35;1.77;;;18.40;99.90;;;;;;4216574;28;20044;-82
2023/09/03 08:06:15;;;;;;;5.30;2.20;;;18.60;99.90;;;;;;4248323;27;20043;-82
2023/09/03 08:08:15;;;;;;;3.28;1.98;;;18.70;99.90;;;;;;4234681;28;20122;-83
2023/09/03 08:10:16;;;;;;;3.58;1.48;;;18.80;99.90;;;;;;4217374;28;20080;-82
2023/09/03 08:12:17;;;;;;;1.98;1.50;;;18.90;99.90;;;;;;4199760;28;20131;-82
2023/09/03 08:14:18;;;;;;;6.32;2.38;;;18.90;99.90;;;;;;4201369;28;20107;-83
2023/09/03 08:16:18;;;;;;;3.42;1.50;;;19.00;99.90;;;;;;4240702;28;20066;-82
2023/09/03 08:18:20;;;;;;;2.58;1.70;;;19.10;99.90;;;;;;4207702;28;20139;-82
2023/09/03 08:20:21;;;;;;;4.38;1.80;;;19.30;99.90;;;;;;4217504;28;20083;-82
2023/09/03 08:22:22;;;;;;;1.73;1.30;;;19.40;99.90;;;;;;4216132;28;20051;-82
2023/09/03 08:24:25;;;;;;;4.93;2.35;;;19.50;99.90;;;;;;4199140;28;20377;-83
2023/09/03 08:26:26;;;;;;;3.53;1.25;;;19.60;99.90;;;;;;4241179;27;20069;-81
2023/09/03 08:28:27;;;;;;;1.67;1.17;;;19.60;99.90;;;;;;4253095;27;20035;-81
2023/09/03 08:30:28;;;;;;;2.28;1.35;;;19.60;99.90;;;;;;4246011;27;20044;-82
2023/09/03 08:32:29;;;;;;;2.47;1.23;;;19.60;99.90;;;;;;4243850;27;20047;-82
2023/09/03 08:34:30;;;;;;;6.63;1.98;;;19.60;99.90;;;;;;4215898;28;20508;-82
2023/09/03 08:36:30;;;;;;;4.15;1.80;;;19.70;99.90;;;;;;4233983;28;20152;-81
2023/09/03 08:38:31;;;;;;;3.83;1.63;;;19.70;99.90;;;;;;4199275;28;20064;-81
2023/09/03 08:40:33;;;;;;;3.90;1.20;;;19.80;99.90;;;;;;4234683;28;20488;-82
2023/09/03 08:42:36;;;;;;;2.95;1.20;;;19.90;99.90;;;;;;4234038;28;20494;-81
2023/09/03 08:44:49;;;;;;;4.03;1.20;;;20.20;99.90;;;;;;4199530;28;20528;-82
2023/09/03 08:46:54;;;;;;;2.80;1.00;;;20.40;99.90;;;;;;4234769;28;20040;-82
2023/09/03 08:48:55;;;;;;;1.33;1.17;;;21.80;99.90;;;;;;4239780;27;20039;-85
2023/09/03 08:50:57;;;;;;;4.78;1.15;;;20.70;99.90;;;;;;4235049;28;20031;-82
2023/09/03 08:52:58;;;;;;;3.78;1.15;;;20.80;99.90;;;;;;4233358;28;20055;-82
2023/09/03 08:55:00;;;;;;;3.88;1.30;;;20.90;99.90;;;;;;4233501;28;20042;-82
2023/09/03 08:57:01;;;;;;;6.35;2.08;;;20.90;99.90;;;;;;4234157;28;20052;-82
2023/09/03 08:59:02;;;;;;;2.10;1.00;;;20.90;99.90;;;;;;4234304;28;20058;-82
2023/09/03 09:01:04;;;;;;;1.77;1.00;;;20.90;99.90;;;;;;4239206;27;20118;-83
2023/09/03 09:03:11;;;;;;;2.67;1.10;;;20.90;99.90;;;;;;4232079;28;20052;-82
2023/09/03 09:05:13;;;;;;;2.22;1.00;;;21.00;99.90;;;;;;4250207;27;20050;-83
2023/09/03 09:07:14;;;;;;;5.45;1.30;;;20.70;99.90;;;;;;4229361;28;20032;-81
2023/09/03 09:09:16;;;;;;;2.58;1.27;;;21.30;99.90;;;;;;4240061;27;20886;-82
2023/09/03 09:11:18;;;;;;;3.83;1.52;;;21.50;99.90;;;;;;4232387;28;20035;-82
2023/09/03 09:13:22;;;;;;;2.58;1.30;;;21.50;99.90;;;;;;4244365;27;20048;-83
2023/09/03 09:15:23;;;;;;;1.90;1.02;;;21.60;99.90;;;;;;4249954;27;20047;-83
2023/09/03 09:17:23;;;;;;;4.75;1.15;;;21.70;99.90;;;;;;4250199;27;20051;-82
2023/09/03 09:19:24;;;;;;;1.75;1.00;;;21.00;99.90;;;;;;4239687;27;20040;-82
2023/09/03 09:21:26;;;;;;;2.58;1.08;;;22.00;99.90;;;;;;4247671;27;20102;-83
2023/09/03 09:23:27;;;;;;;4.63;1.15;;;22.20;99.90;;;;;;4250149;27;20049;-83
2023/09/03 09:25:28;;;;;;;5.28;1.13;;;22.50;99.90;;;;;;4231814;28;20127;-83
2023/09/03 09:27:29;;;;;;;7.45;1.75;;;22.70;99.90;;;;;;4249871;27;20046;-82
2023/09/03 09:29:30;;;;;;;3.22;1.10;;;23.00;99.90;;;;;;4248960;27;20458;-83
2023/09/03 09:31:32;;;;;;;2.00;1.10;;;23.20;99.90;;;;;;4214304;28;20092;-81
2023/09/03 09:33:32;;;;;;;1.98;1.05;;;23.50;99.90;;;;;;4249312;27;20196;-82
2023/09/03 09:35:36;;;;;;;4.75;1.23;;;23.70;99.90;;;;;;4231098;28;20036;-86
2023/09/03 09:37:41;;;;;;;2.22;1.20;;;23.80;99.90;;;;;;4230125;28;20052;-89
2023/09/03 09:39:48;;;;;;;2.33;0.90;;;23.90;99.90;;;;;;4245521;27;20082;-83
2023/09/03 09:41:51;;;;;;;4.35;1.15;;;;;;;;;;4231596;28;20073;-84
2023/09/03 09:43:52;;;;;;;3.90;1.15;;;;;;;;;;4233197;27;20066;-83
2023/09/03 09:45:53;;;;;;;2.08;1.27;;;;;;;;;;4233945;27;20039;-85
2023/09/03 09:48:06;;;;;;;1.95;1.00;;;;;;;;;;4231002;28;20031;-82
2023/09/03 09:50:09;;;;;;;1.45;1.15;;;;;;;;;;4224796;28;20044;-81
2023/09/03 09:52:12;;;;;;;4.40;1.23;;;;;;;;;;4251443;28;20054;-82
2023/09/03 09:54:13;;;;;;;3.60;1.50;;;;;;;;;;4221448;28;20532;-82
2023/09/03 09:56:18;;;;;;;2.67;1.95;;;;;;;;;;4231251;28;20484;-82
2023/09/03 09:58:20;;;;;;;2.78;1.58;;;;;;;;;;4235325;27;20043;-82
2023/09/03 10:00:34;;;;;;;1.63;1.40;;;;;;;;;;4236419;27;20394;-81
2023/09/03 10:02:37;;;;;;;4.68;1.58;;;;;;;;;;4247596;27;20047;-81
2023/09/03 10:04:41;;;;;;;4.65;1.30;;;;;;;;;;4230976;28;20040;-82
2023/09/03 10:06:43;;;;;;;1.35;1.25;;;;;;;;;;4241944;27;20440;-81
2023/09/03 10:08:45;;;;;;;1.40;0.75;;;;;;;;;;4249328;27;20042;-83
2023/09/03 10:10:46;;;;;;;2.67;1.00;;;;;;;;;;4247101;27;20035;-81
2023/09/03 10:12:47;;;;;;;1.90;1.10;;;;;;;;;;4229831;28;20039;-81
2023/09/03 10:14:48;;;;;;;3.78;1.23;;;;;;;;;;4245831;27;20491;-82
2023/09/03 10:16:53;;;;;;;3.22;1.33;;;;;;;;;;4232313;28;20495;-82
2023/09/03 10:18:55;;;;;;;3.75;1.20;;;;;;;;;;4233654;27;20046;-82
2023/09/03 10:20:57;;;;;;;1.65;1.00;;;;;;;;;;4231159;28;20062;-82
2023/09/03 10:23:01;;;;;;;3.35;1.00;;;;;;;;;;4247614;27;20047;-81
2023/09/03 10:25:05;;;;;;;4.40;1.20;;;;;;;;;;4231010;27;20507;-81
2023/09/03 10:27:09;;;;;;;1.95;0.90;;;;;;;;;;4231826;28;20502;-81
2023/09/03 10:29:13;;;;;;;4.53;1.02;;;;;;;;;;4234293;27;20031;-81
2023/09/03 10:31:15;;;;;;;2.30;1.20;;;;;;;;;;4231601;28;20054;-81
2023/09/03 10:33:16;;;;;;;1.77;0.85;;;;;;;;;;4230425;28;20455;-81
2023/09/03 10:35:17;;;;;;;2.75;1.10;;;;;;;;;;4213738;28;20554;-81
2023/09/03 10:37:20;;;;;;;2.05;1.00;;;;;;;;;;4235491;27;20451;-81
2023/09/03 10:39:22;;;;;;;1.75;1.00;;;;;;;;;;4248523;27;20051;-81
2023/09/03 10:41:24;;;;;;;3.08;0.80;;;;;;;;;;4242134;27;20574;-81
2023/09/03 10:43:25;;;;;;;3.45;0.88;;;;;;;;;;4231943;28;20050;-81
2023/09/03 10:45:26;;;;;;;2.22;0.90;;;;;;;;;;4233752;27;20773;-81
2023/09/03 10:47:28;;;;;;;1.33;0.80;;;;;;;;;;4244370;27;20503;-81